This is the latest recevied weather packets stored in our database for station/object W0AKY-13. If no packets are shown the sender has not sent any weather packets the latest 10 day(s).
| Time | Temp. | Humidity | Pressure | Rain* | Wind** | Luminosity | Snow |
|---|---|---|---|---|---|---|---|
| 1777729324 | 7.78° C | 67% | 1023.6 hPa | 0 mm | - | 28 W/m² | - |
| 1777729020 | 7.22° C | 65% | 1023.5 hPa | 0 mm | - | 28 W/m² | - |
| 1777728716 | 6.67° C | 71% | 1023.1 hPa | 0 mm | - | 27 W/m² | - |
| 1777728413 | 6.67° C | 69% | 1023.2 hPa | 0 mm | - | 27 W/m² | - |
| 1777728110 | 6.11° C | 72% | 1023.2 hPa | 0 mm | - | 26 W/m² | - |
| 1777727807 | 5.56° C | 73% | 1023.5 hPa | 0 mm | - | 35 W/m² | - |
| 1777727504 | 5° C | 75% | 1023.3 hPa | 0 mm | - | 26 W/m² | - |
| 1777727202 | 4.44° C | 78% | 1023.3 hPa | 0 mm | - | 30 W/m² | - |
| 1777726595 | 3.89° C | 78% | 1023.1 hPa | 0 mm | - | 22 W/m² | - |
| 1777725385 | 1.67° C | 92% | 1023.3 hPa | 0 mm | - | 19 W/m² | - |
| 1777725081 | 1.11° C | 92% | 1023.6 hPa | 0 mm | - | 18 W/m² | - |
| 1777724778 | 0.56° C | 92% | 1023.2 hPa | 0 mm | - | 17 W/m² | - |
| 1777724475 | 0.56° C | 92% | 1023.2 hPa | 0 mm | - | 16 W/m² | - |
| 1777724173 | 0.56° C | 92% | 1023 hPa | 0 mm | - | 15 W/m² | - |
| 1777723870 | 0.56° C | 92% | 1023.1 hPa | 0 mm | - | 14 W/m² | - |
| 1777722962 | 0° C | 92% | 1022.9 hPa | 0 mm | - | 10 W/m² | - |
| 1777722050 | 0° C | 92% | 1022.6 hPa | 0 mm | - | 6 W/m² | - |
| 1777721748 | 0° C | 91% | 1022.9 hPa | 0 mm | - | 4 W/m² | - |
| 1777721446 | 0° C | 91% | 1022.6 hPa | 0 mm | - | 3 W/m² | - |
| 1777721144 | 0° C | 91% | 1022.6 hPa | 0 mm | - | 2 W/m² | - |
| 1777720841 | 0° C | 91% | 1022.5 hPa | 0 mm | - | 1 W/m² | - |
| 1777720538 | 0° C | 92% | 1022.6 hPa | 0 mm | - | 1 W/m² | - |
| 1777720236 | 0° C | 92% | 1022.4 hPa | 0 mm | - | 0 W/m² | - |
| 1777719933 | 0° C | 92% | 1022.5 hPa | 0 mm | - | 0 W/m² | - |
| 1777719631 | 0° C | 92% | 1022.5 hPa | 0 mm | - | 0 W/m² | - |
* Rain latest hour (hover to see other rain measurements)
** Current wind speed in m/s (hover to see current wind gust speed)